sensor_id;sensor_type;location;lat;lon;timestamp;pressure;altitude;pressure_sealevel;temperature;humidity
71857;BME280;63344;46.980;28.882;2023-12-07T00:01:55;101279.41;;;-1.93;81.21
71857;BME280;63344;46.980;28.882;2023-12-07T00:04:44;101288.06;;;-1.92;81.37
71857;BME280;63344;46.980;28.882;2023-12-07T00:07:26;101275.00;;;-1.94;81.33
71857;BME280;63344;46.980;28.882;2023-12-07T00:10:33;101268.91;;;-1.96;80.83
71857;BME280;63344;46.980;28.882;2023-12-07T00:13:19;101267.25;;;-1.92;80.73
71857;BME280;63344;46.980;28.882;2023-12-07T00:16:17;101275.94;;;-1.92;80.50
71857;BME280;63344;46.980;28.882;2023-12-07T00:18:58;101275.09;;;-1.91;80.20
71857;BME280;63344;46.980;28.882;2023-12-07T00:21:29;101271.50;;;-1.96;80.28
71857;BME280;63344;46.980;28.882;2023-12-07T00:24:11;101264.28;;;-2.09;80.34
71857;BME280;63344;46.980;28.882;2023-12-07T00:26:51;101290.47;;;-2.02;80.25
71857;BME280;63344;46.980;28.882;2023-12-07T00:29:24;101291.34;;;-2.01;80.22
71857;BME280;63344;46.980;28.882;2023-12-07T00:31:54;101294.06;;;-1.96;80.46
71857;BME280;63344;46.980;28.882;2023-12-07T00:38:02;101280.22;;;-1.95;80.28
71857;BME280;63344;46.980;28.882;2023-12-07T00:40:38;101277.59;;;-1.95;80.47
71857;BME280;63344;46.980;28.882;2023-12-07T00:43:33;101281.94;;;-1.94;80.33
71857;BME280;63344;46.980;28.882;2023-12-07T00:46:32;101278.44;;;-1.96;80.10
71857;BME280;63344;46.980;28.882;2023-12-07T00:49:14;101272.34;;;-1.97;80.01
71857;BME280;63344;46.980;28.882;2023-12-07T00:52:27;101273.88;;;-2.07;79.74
71857;BME280;63344;46.980;28.882;2023-12-07T00:55:01;101278.25;;;-2.06;79.78
71857;BME280;63344;46.980;28.882;2023-12-07T00:57:45;101273.78;;;-2.10;79.63
71857;BME280;63344;46.980;28.882;2023-12-07T01:00:24;101267.72;;;-2.10;80.00
71857;BME280;63344;46.980;28.882;2023-12-07T01:02:56;101276.28;;;-2.14;79.41
71857;BME280;63344;46.980;28.882;2023-12-07T01:05:32;101268.44;;;-2.16;80.01
71857;BME280;63344;46.980;28.882;2023-12-07T01:08:04;101265.00;;;-2.15;79.87
71857;BME280;63344;46.980;28.882;2023-12-07T01:10:52;101267.66;;;-2.12;80.00
71857;BME280;63344;46.980;28.882;2023-12-07T01:13:37;101265.22;;;-2.06;80.49
71857;BME280;63344;46.980;28.882;2023-12-07T01:16:40;101260.94;;;-2.02;80.12
71857;BME280;63344;46.980;28.882;2023-12-07T01:19:22;101260.03;;;-2.06;80.26
71857;BME280;63344;46.980;28.882;2023-12-07T01:21:57;101257.47;;;-2.03;80.01
71857;BME280;63344;46.980;28.882;2023-12-07T01:24:45;101243.34;;;-2.14;79.95
71857;BME280;63344;46.980;28.882;2023-12-07T01:27:22;101259.13;;;-2.06;79.94
71857;BME280;63344;46.980;28.882;2023-12-07T01:30:08;101258.22;;;-2.08;79.52
71857;BME280;63344;46.980;28.882;2023-12-07T01:32:56;101253.88;;;-2.09;79.55
71857;BME280;63344;46.980;28.882;2023-12-07T01:35:28;101246.06;;;-2.08;79.91
71857;BME280;63344;46.980;28.882;2023-12-07T01:38:10;101246.97;;;-2.07;79.45
71857;BME280;63344;46.980;28.882;2023-12-07T01:41:10;101247.88;;;-2.05;79.76
71857;BME280;63344;46.980;28.882;2023-12-07T01:43:55;101231.22;;;-2.13;79.70
71857;BME280;63344;46.980;28.882;2023-12-07T01:46:27;101253.88;;;-2.09;79.43
71857;BME280;63344;46.980;28.882;2023-12-07T01:49:12;101233.84;;;-2.12;80.00
71857;BME280;63344;46.980;28.882;2023-12-07T01:51:51;101244.31;;;-2.09;79.80
71857;BME280;63344;46.980;28.882;2023-12-07T01:54:25;101238.16;;;-2.12;79.97
71857;BME280;63344;46.980;28.882;2023-12-07T01:57:02;101254.03;;;-2.02;79.63
71857;BME280;63344;46.980;28.882;2023-12-07T01:59:47;101248.75;;;-2.05;79.62
71857;BME280;63344;46.980;28.882;2023-12-07T02:02:20;101254.97;;;-1.99;79.65
71857;BME280;63344;46.980;28.882;2023-12-07T02:04:54;101254.03;;;-2.02;80.02
71857;BME280;63344;46.980;28.882;2023-12-07T02:07:35;101249.63;;;-2.06;79.62
71857;BME280;63344;46.980;28.882;2023-12-07T02:10:12;101259.16;;;-2.05;79.81
71857;BME280;63344;46.980;28.882;2023-12-07T02:12:48;101249.63;;;-2.06;79.52
71857;BME280;63344;46.980;28.882;2023-12-07T02:15:27;101247.88;;;-2.05;79.94
71857;BME280;63344;46.980;28.882;2023-12-07T02:21:32;101246.06;;;-2.08;80.33
71857;BME280;63344;46.980;28.882;2023-12-07T02:24:05;101244.47;;;-2.03;80.18
71857;BME280;63344;46.980;28.882;2023-12-07T02:26:35;101248.94;;;-1.97;80.00
71857;BME280;63344;46.980;28.882;2023-12-07T02:29:22;101247.16;;;-1.99;nan
71857;BME280;63344;46.980;28.882;2023-12-07T02:31:50;101251.47;;;-2.00;80.01
71857;BME280;63344;46.980;28.882;2023-12-07T02:34:22;101247.94;;;-2.04;79.98
71857;BME280;63344;46.980;28.882;2023-12-07T02:36:58;101248.81;;;-2.03;80.01
71857;BME280;63344;46.980;28.882;2023-12-07T02:39:47;101243.69;;;-1.98;80.14
71857;BME280;63344;46.980;28.882;2023-12-07T02:42:25;101246.28;;;-1.98;80.01
71857;BME280;63344;46.980;28.882;2023-12-07T02:45:28;101244.59;;;-1.96;79.68
71857;BME280;63344;46.980;28.882;2023-12-07T02:48:05;101231.53;;;-1.99;79.66
71857;BME280;63344;46.980;28.882;2023-12-07T02:50:54;101242.81;;;-1.99;79.97
71857;BME280;63344;46.980;28.882;2023-12-07T02:53:23;101246.28;;;-1.98;79.84
71857;BME280;63344;46.980;28.882;2023-12-07T02:56:10;101242.91;;;-1.94;80.07
71857;BME280;63344;46.980;28.882;2023-12-07T02:58:50;101245.50;;;-1.94;80.09
71857;BME280;63344;46.980;28.882;2023-12-07T03:01:27;101248.22;;;-1.90;79.95
71857;BME280;63344;46.980;28.882;2023-12-07T03:04:09;101251.63;;;-1.92;80.23
71857;BME280;63344;46.980;28.882;2023-12-07T03:07:17;101245.59;;;-1.91;79.90
71857;BME280;63344;46.980;28.882;2023-12-07T03:09:49;101247.28;;;-1.92;79.74
71857;BME280;63344;46.980;28.882;2023-12-07T03:12:38;101242.09;;;-1.92;79.79
71857;BME280;63344;46.980;28.882;2023-12-07T03:15:19;101262.22;;;-1.85;79.58
71857;BME280;63344;46.980;28.882;2023-12-07T03:17:51;101261.25;;;-1.88;79.51
71857;BME280;63344;46.980;28.882;2023-12-07T03:20:31;101264.66;;;-1.92;79.82
71857;BME280;63344;46.980;28.882;2023-12-07T03:23:01;101265.56;;;-1.90;80.01
71857;BME280;63344;46.980;28.882;2023-12-07T03:25:38;101272.63;;;-1.85;79.99
71857;BME280;63344;46.980;28.882;2023-12-07T03:28:18;101263.03;;;-1.87;79.91
71857;BME280;63344;46.980;28.882;2023-12-07T03:31:01;101270.13;;;-1.82;79.74
71857;BME280;63344;46.980;28.882;2023-12-07T03:33:44;101275.28;;;-1.83;79.62
71857;BME280;63344;46.980;28.882;2023-12-07T03:36:27;101254.31;;;-1.89;79.71
71857;BME280;63344;46.980;28.882;2023-12-07T03:42:48;101266.41;;;-1.91;79.85
71857;BME280;63344;46.980;28.882;2023-12-07T03:45:53;101263.91;;;-1.87;79.85
71857;BME280;63344;46.980;28.882;2023-12-07T03:48:38;101264.00;;;-1.82;80.02
71857;BME280;63344;46.980;28.882;2023-12-07T03:51:16;101263.16;;;-1.81;80.14
71857;BME280;63344;46.980;28.882;2023-12-07T03:54:13;101261.41;;;-1.82;80.40
71857;BME280;63344;46.980;28.882;2023-12-07T03:56:52;101256.19;;;-1.84;80.36
71857;BME280;63344;46.980;28.882;2023-12-07T03:59:35;101261.38;;;-1.84;80.59
71857;BME280;63344;46.980;28.882;2023-12-07T04:02:09;101262.13;;;-1.88;80.86
71857;BME280;63344;46.980;28.882;2023-12-07T04:04:57;101268.34;;;-1.83;80.29
71857;BME280;63344;46.980;28.882;2023-12-07T04:07:40;101251.75;;;-1.86;80.07
71857;BME280;63344;46.980;28.882;2023-12-07T04:10:23;101256.94;;;-1.88;80.14
71857;BME280;63344;46.980;28.882;2023-12-07T04:13:05;101263.03;;;-1.87;80.74
71857;BME280;63344;46.980;28.882;2023-12-07T04:16:14;101262.13;;;-1.88;80.55
71857;BME280;63344;46.980;28.882;2023-12-07T04:19:02;101256.91;;;-1.89;80.18
71857;BME280;63344;46.980;28.882;2023-12-07T04:21:40;101253.41;;;-1.91;80.47
71857;BME280;63344;46.980;28.882;2023-12-07T04:24:24;101253.38;;;-1.93;80.73
71857;BME280;63344;46.980;28.882;2023-12-07T04:27:14;101263.09;;;-1.86;80.58
71857;BME280;63344;46.980;28.882;2023-12-07T04:29:46;101264.78;;;-1.86;80.84
71857;BME280;63344;46.980;28.882;2023-12-07T04:32:28;101262.00;;;-1.94;80.80
71857;BME280;63344;46.980;28.882;2023-12-07T04:35:22;101268.28;;;-1.86;80.96
71857;BME280;63344;46.980;28.882;2023-12-07T04:38:07;101255.09;;;-1.92;81.49
71857;BME280;63344;46.980;28.882;2023-12-07T04:40:47;101256.00;;;-1.90;81.32
71857;BME280;63344;46.980;28.882;2023-12-07T04:43:36;101262.13;;;-1.89;81.28
71857;BME280;63344;46.980;28.882;2023-12-07T04:46:21;101256.00;;;-1.90;81.41
71857;BME280;63344;46.980;28.882;2023-12-07T04:49:19;101249.75;;;-1.98;81.06
71857;BME280;63344;46.980;28.882;2023-12-07T04:52:07;101260.44;;;-1.87;80.78
71857;BME280;63344;46.980;28.882;2023-12-07T04:55:16;101260.47;;;-1.86;80.67
71857;BME280;63344;46.980;28.882;2023-12-07T04:58:08;101255.88;;;-1.96;80.94
71857;BME280;63344;46.980;28.882;2023-12-07T05:12:47;101260.91;;;-2.05;80.92
71857;BME280;63344;46.980;28.882;2023-12-07T05:24:13;101267.50;;;-2.19;80.47
71857;BME280;63344;46.980;28.882;2023-12-07T05:27:13;101270.94;;;-2.21;80.70
71857;BME280;63344;46.980;28.882;2023-12-07T05:34:43;101271.53;;;-2.32;81.44
71857;BME280;63344;46.980;28.882;2023-12-07T06:12:36;101283.22;;;-2.50;81.86
71857;BME280;63344;46.980;28.882;2023-12-07T06:15:53;101297.09;;;-2.51;82.26
71857;BME280;63344;46.980;28.882;2023-12-07T06:19:27;101286.56;;;-2.55;81.64
71857;BME280;63344;46.980;28.882;2023-12-07T06:29:57;101285.81;;;-2.51;81.97
71857;BME280;63344;46.980;28.882;2023-12-07T06:46:19;101289.44;;;-2.45;82.15
71857;BME280;63344;46.980;28.882;2023-12-07T06:54:06;101282.44;;;-2.46;81.93
71857;BME280;63344;46.980;28.882;2023-12-07T07:59:30;101318.94;;;-2.08;79.80
71857;BME280;63344;46.980;28.882;2023-12-07T09:26:54;101281.00;;;-1.58;82.18
71857;BME280;63344;46.980;28.882;2023-12-07T10:55:07;101222.22;;;-1.00;80.69
71857;BME280;63344;46.980;28.882;2023-12-07T13:31:24;101199.88;;;-0.87;82.92
71857;BME280;63344;46.980;28.882;2023-12-07T13:34:18;101202.41;;;-0.90;83.35
71857;BME280;63344;46.980;28.882;2023-12-07T15:50:08;101230.38;;;-0.83;85.27
71857;BME280;63344;46.980;28.882;2023-12-07T15:53:26;101239.97;;;-0.81;85.02
71857;BME280;63344;46.980;28.882;2023-12-07T16:01:08;101237.38;;;-0.79;85.36
71857;BME280;63344;46.980;28.882;2023-12-07T16:25:51;101229.25;;;-0.96;88.46
71857;BME280;63344;46.980;28.882;2023-12-07T16:54:39;101236.06;;;-1.04;91.86
71857;BME280;63344;46.980;28.882;2023-12-07T17:02:00;101225.50;;;-1.10;92.32
71857;BME280;63344;46.980;28.882;2023-12-07T17:54:51;101207.72;;;-1.33;95.49
71857;BME280;63344;46.980;28.882;2023-12-07T18:20:19;101221.78;;;-1.25;95.98
71857;BME280;63344;46.980;28.882;2023-12-07T18:22:49;101214.88;;;-1.23;96.06
71857;BME280;63344;46.980;28.882;2023-12-07T18:25:19;101204.41;;;-1.24;95.81
71857;BME280;63344;46.980;28.882;2023-12-07T18:28:19;101211.34;;;-1.25;96.07
71857;BME280;63344;46.980;28.882;2023-12-07T18:40:16;101211.34;;;-1.25;96.20
71857;BME280;63344;46.980;28.882;2023-12-07T18:43:37;101214.88;;;-1.23;96.23
71857;BME280;63344;46.980;28.882;2023-12-07T18:46:05;101194.78;;;-1.28;96.09
71857;BME280;63344;46.980;28.882;2023-12-07T18:48:41;101214.91;;;-1.21;96.00
71857;BME280;63344;46.980;28.882;2023-12-07T18:51:09;101216.66;;;-1.20;96.60
71857;BME280;63344;46.980;28.882;2023-12-07T18:53:37;101215.75;;;-1.22;96.36
71857;BME280;63344;46.980;28.882;2023-12-07T18:56:15;101209.78;;;-1.16;96.72
71857;BME280;63344;46.980;28.882;2023-12-07T18:58:44;101208.06;;;-1.14;96.46
71857;BME280;63344;46.980;28.882;2023-12-07T19:01:13;101212.47;;;-1.12;96.31
71857;BME280;63344;46.980;28.882;2023-12-07T19:03:41;101203.75;;;-1.12;96.19
71857;BME280;63344;46.980;28.882;2023-12-07T19:06:10;101199.34;;;-1.16;96.38
71857;BME280;63344;46.980;28.882;2023-12-07T19:08:42;101202.88;;;-1.13;96.24
71857;BME280;63344;46.980;28.882;2023-12-07T19:11:13;101200.34;;;-1.10;96.06
71857;BME280;63344;46.980;28.882;2023-12-07T19:22:29;101198.50;;;-1.15;96.29
71857;BME280;63344;46.980;28.882;2023-12-07T19:24:57;101198.47;;;-1.17;96.04
71857;BME280;63344;46.980;28.882;2023-12-07T19:27:24;101209.88;;;-1.12;96.34
71857;BME280;63344;46.980;28.882;2023-12-07T19:29:52;101203.78;;;-1.11;96.10
71857;BME280;63344;46.980;28.882;2023-12-07T19:32:23;101204.78;;;-1.06;96.36
71857;BME280;63344;46.980;28.882;2023-12-07T19:37:50;101192.59;;;-1.05;96.02
71857;BME280;63344;46.980;28.882;2023-12-07T19:40:17;101186.50;;;-1.07;96.08
71857;BME280;63344;46.980;28.882;2023-12-07T19:42:45;101189.22;;;-1.01;96.29
71857;BME280;63344;46.980;28.882;2023-12-07T19:45:12;101186.50;;;-1.07;95.80
71857;BME280;63344;46.980;28.882;2023-12-07T19:47:40;101199.53;;;-1.07;96.26
71857;BME280;63344;46.980;28.882;2023-12-07T19:50:08;101189.94;;;-1.08;96.27
71857;BME280;63344;46.980;28.882;2023-12-07T19:52:36;101197.81;;;-1.05;96.07
71857;BME280;63344;46.980;28.882;2023-12-07T19:55:04;101192.66;;;-1.04;96.40
71857;BME280;63344;46.980;28.882;2023-12-07T19:57:33;101197.03;;;-1.01;96.17
71857;BME280;63344;46.980;28.882;2023-12-07T20:00:06;101197.84;;;-1.02;96.59
71857;BME280;63344;46.980;28.882;2023-12-07T20:02:57;101199.63;;;-1.01;96.16
71857;BME280;63344;46.980;28.882;2023-12-07T20:05:40;101202.19;;;-1.03;96.29
71857;BME280;63344;46.980;28.882;2023-12-07T20:08:25;101201.34;;;-1.03;96.38
71857;BME280;63344;46.980;28.882;2023-12-07T20:12:16;101195.19;;;-1.07;96.03
71857;BME280;63344;46.980;28.882;2023-12-07T20:14:49;101189.09;;;-1.07;96.46
71857;BME280;63344;46.980;28.882;2023-12-07T20:17:31;101181.28;;;-1.07;96.39
71857;BME280;63344;46.980;28.882;2023-12-07T20:19:58;101187.31;;;-1.08;96.23
71857;BME280;63344;46.980;28.882;2023-12-07T20:22:27;101175.22;;;-1.05;96.63
71857;BME280;63344;46.980;28.882;2023-12-07T20:24:57;101180.41;;;-1.06;96.53
71857;BME280;63344;46.980;28.882;2023-12-07T20:27:24;101181.31;;;-1.06;96.41
71857;BME280;63344;46.980;28.882;2023-12-07T20:29:52;101182.19;;;-1.05;96.76
71857;BME280;63344;46.980;28.882;2023-12-07T20:32:20;101183.91;;;-1.04;96.73
71857;BME280;63344;46.980;28.882;2023-12-07T20:34:47;101179.50;;;-1.08;96.68
71857;BME280;63344;46.980;28.882;2023-12-07T20:37:16;101178.59;;;-1.10;96.54
71857;BME280;63344;46.980;28.882;2023-12-07T20:39:48;101183.00;;;-1.06;96.51
71857;BME280;63344;46.980;28.882;2023-12-07T20:42:15;101180.47;;;-1.03;96.63
71857;BME280;63344;46.980;28.882;2023-12-07T20:44:43;101174.31;;;-1.07;96.62
71857;BME280;63344;46.980;28.882;2023-12-07T20:47:10;101184.81;;;-1.02;96.91
71857;BME280;63344;46.980;28.882;2023-12-07T20:49:38;101184.00;;;-1.01;96.66
71857;BME280;63344;46.980;28.882;2023-12-07T20:52:19;101176.03;;;-1.09;96.43
71857;BME280;63344;46.980;28.882;2023-12-07T20:54:50;101190.84;;;-1.06;96.55
71857;BME280;63344;46.980;28.882;2023-12-07T20:57:18;101190.00;;;-1.05;95.98
71857;BME280;63344;46.980;28.882;2023-12-07T20:59:48;101201.25;;;-1.06;96.65
71857;BME280;63344;46.980;28.882;2023-12-07T21:29:40;101196.84;;;-1.10;96.25
71857;BME280;63344;46.980;28.882;2023-12-07T21:32:08;101189.00;;;-1.13;96.15
71857;BME280;63344;46.980;28.882;2023-12-07T21:34:38;101190.75;;;-1.11;96.34
71857;BME280;63344;46.980;28.882;2023-12-07T21:37:13;101189.94;;;-1.08;96.09
71857;BME280;63344;46.980;28.882;2023-12-07T21:41:13;101193.44;;;-1.08;96.08
71857;BME280;63344;46.980;28.882;2023-12-07T21:44:30;101186.31;;;-1.16;96.48
71857;BME280;63344;46.980;28.882;2023-12-07T21:46:57;101188.16;;;-1.11;96.18
71857;BME280;63344;46.980;28.882;2023-12-07T21:49:25;101195.94;;;-1.12;96.17
71857;BME280;63344;46.980;28.882;2023-12-07T21:51:54;101189.94;;;-1.10;95.97
71857;BME280;63344;46.980;28.882;2023-12-07T21:54:23;101195.22;;;-1.05;96.39
71857;BME280;63344;46.980;28.882;2023-12-07T21:56:51;101195.22;;;-1.05;96.32
71857;BME280;63344;46.980;28.882;2023-12-07T21:59:19;101191.75;;;-1.04;96.10
71857;BME280;63344;46.980;28.882;2023-12-07T22:01:46;101192.56;;;-1.07;96.37
71857;BME280;63344;46.980;28.882;2023-12-07T22:04:14;101190.81;;;-1.09;96.13
71857;BME280;63344;46.980;28.882;2023-12-07T22:06:42;101177.78;;;-1.09;96.32
71857;BME280;63344;46.980;28.882;2023-12-07T22:09:10;101177.69;;;-1.12;96.42
71857;BME280;63344;46.980;28.882;2023-12-07T22:11:38;101177.81;;;-1.06;96.04
71857;BME280;63344;46.980;28.882;2023-12-07T22:14:06;101174.28;;;-1.08;95.94
71857;BME280;63344;46.980;28.882;2023-12-07T22:16:39;101173.38;;;-1.10;96.08
71857;BME280;63344;46.980;28.882;2023-12-07T22:19:08;101179.53;;;-1.07;96.04
71857;BME280;63344;46.980;28.882;2023-12-07T22:21:36;101179.56;;;-1.05;95.62
71857;BME280;63344;46.980;28.882;2023-12-07T22:24:04;101180.44;;;-1.05;96.33
71857;BME280;63344;46.980;28.882;2023-12-07T22:26:31;101171.69;;;-1.08;95.88
71857;BME280;63344;46.980;28.882;2023-12-07T22:28:59;101172.59;;;-1.08;96.07
71857;BME280;63344;46.980;28.882;2023-12-07T22:31:27;101176.97;;;-1.05;95.78
71857;BME280;63344;46.980;28.882;2023-12-07T22:33:55;101171.69;;;-1.08;95.98
71857;BME280;63344;46.980;28.882;2023-12-07T22:36:27;101169.13;;;-1.07;96.09
71857;BME280;63344;46.980;28.882;2023-12-07T22:38:57;101178.72;;;-1.04;95.81
71857;BME280;63344;46.980;28.882;2023-12-07T22:41:26;101165.63;;;-1.07;95.80
71857;BME280;63344;46.980;28.882;2023-12-07T22:43:57;101166.59;;;-1.02;95.94
71857;BME280;63344;46.980;28.882;2023-12-07T22:46:24;101159.66;;;-1.02;95.86
71857;BME280;63344;46.980;28.882;2023-12-07T22:48:54;101170.06;;;-1.03;95.47
71857;BME280;63344;46.980;28.882;2023-12-07T22:51:21;101156.84;;;-1.12;95.36
71857;BME280;63344;46.980;28.882;2023-12-07T22:53:49;101156.09;;;-1.07;95.07
71857;BME280;63344;46.980;28.882;2023-12-07T22:56:16;101165.56;;;-1.10;95.42
71857;BME280;63344;46.980;28.882;2023-12-07T22:58:46;101166.50;;;-1.07;95.25
71857;BME280;63344;46.980;28.882;2023-12-07T23:01:14;101161.22;;;-1.11;95.50
71857;BME280;63344;46.980;28.882;2023-12-07T23:03:41;101151.53;;;-1.18;95.13
71857;BME280;63344;46.980;28.882;2023-12-07T23:06:09;101162.09;;;-1.11;95.56
71857;BME280;63344;46.980;28.882;2023-12-07T23:08:37;101155.19;;;-1.09;95.63
71857;BME280;63344;46.980;28.882;2023-12-07T23:11:07;101147.41;;;-1.07;95.25
71857;BME280;63344;46.980;28.882;2023-12-07T23:13:46;101150.00;;;-1.07;95.16
71857;BME280;63344;46.980;28.882;2023-12-07T23:16:15;101158.75;;;-1.04;95.18
71857;BME280;63344;46.980;28.882;2023-12-07T23:18:44;101155.25;;;-1.06;95.35
71857;BME280;63344;46.980;28.882;2023-12-07T23:21:12;101152.66;;;-1.04;95.29
71857;BME280;63344;46.980;28.882;2023-12-07T23:23:41;101157.94;;;-1.01;95.17
71857;BME280;63344;46.980;28.882;2023-12-07T23:26:09;101157.13;;;-0.97;95.37
71857;BME280;63344;46.980;28.882;2023-12-07T23:28:38;101152.72;;;-1.01;95.02
71857;BME280;63344;46.980;28.882;2023-12-07T23:31:06;101156.25;;;-0.96;95.11
71857;BME280;63344;46.980;28.882;2023-12-07T23:33:34;101157.13;;;-0.97;95.20
71857;BME280;63344;46.980;28.882;2023-12-07T23:36:03;101144.03;;;-1.00;94.56
71857;BME280;63344;46.980;28.882;2023-12-07T23:38:32;101157.16;;;-0.94;94.96
71857;BME280;63344;46.980;28.882;2023-12-07T23:41:00;101155.34;;;-0.98;94.41
71857;BME280;63344;46.980;28.882;2023-12-07T23:43:30;101153.66;;;-0.97;94.81
71857;BME280;63344;46.980;28.882;2023-12-07T23:45:59;101147.56;;;-0.96;94.42
71857;BME280;63344;46.980;28.882;2023-12-07T23:48:26;101162.28;;;-1.00;94.04
71857;BME280;63344;46.980;28.882;2023-12-07T23:50:54;101150.03;;;-1.06;93.93
71857;BME280;63344;46.980;28.882;2023-12-07T23:53:23;101156.16;;;-1.02;94.12
71857;BME280;63344;46.980;28.882;2023-12-07T23:55:50;101157.97;;;-0.98;94.29
71857;BME280;63344;46.980;28.882;2023-12-07T23:58:18;101156.25;;;-0.96;94.20
